Kirkersville, Ohio
Current Conditions -  °F | °C
As of 6:54 PM on Sunday 23 Nov 2014 (Local Time) from KVTA Reporting Station
Light Rain Light Rain  
Wind Chill: 56°   Ceiling: 6000
Heat Index: 56°   Visibility: 10mi
Dew Point: 45°   Wind: 9mph
Humidity: 67%   Direction: 120°ESE
Pressure: 29.6"   Gusts: NA
Location:  39.96°N, 82.6°W
Report Text: KVTA 232354Z AUTO 12008KT 10SM -RA FEW040 BKN060 OVC080 13/07 A2960 RMK AO2 RAB11 SLP025 P0001 60002 T01330072 10178 20128 58040
Loading
Personal Weather Stations






























Interactive Weather Map New forecast layout! Learn more

10-Day Weather Forecast

Advertisements
Track Severe Weather on mobile